Terminal Aerodrome Forecast
Issued by NWS Wilmington, OH

Current Version | Previous Version | Graphics & Text | Print | Product List | Glossary On
Versions: 1 2 3 4 5 6 7 8 9 10 11 12 13 14 15 16 17 18 19 20 21 22 23 24
000
FTUS41 KILN 201500 AAA
TAFCVG
TAF AMD
KCVG 201500Z 2015/2118 14006KT P6SM SCT250
     FM201800 17006KT P6SM FEW050 BKN250
     FM210000 15003KT P6SM SCT050 BKN250
     FM211500 22007KT P6SM SCT050 BKN150=

USA.gov is the U.S. government's official web portal to all federal, state and local government web resources and services.